Art, TX

10:34 PM CST on November 22, 2014 (GMT -0600)
Russell Ranch, Castell | Change Station
CLOSE
Current Station
Personal Weather Station
Location: Llano, TX
Elevation: 1319 ft
Nearby Weather Stations

Elev 1319 ft 30.66 °N, 98.90 °W | Updated 4 minutes ago

Rain
Rain
56.9 °F
Feels Like 56.9 °F
N
1.0
Wind Variable Wind from SW
Gusts 6.0 mph

Today
High -- | Low -- °F
--% Chance of Precip.
Yesterday
High -- | Low -- °F
Precip. -- in
7:08 AM 5:35 PM
New Moon, 1% visible
Pressure 29.84 in
Visibility 10.0 miles
Clouds Mostly Cloudy 6000 ft
Dew Point 55 °F
Humidity 94%
Rainfall 0.84 in
Snow Depth Not available.
UV 0 out of 12
Pollen .70 out of 12
Air Quality Not available.
Flu Activity Not available.
METAR KAQO 230415Z AUTO 26007KT 10SM BKN060 15/13 A2984 RMK AO2 LTG DSNT NE-SE

More Conditions Fewer Conditions

Pressure 29.84 in
Visibility 10.0 miles
Clouds Mostly Cloudy 6000 ft
Dew Point 55 °F
Humidity 94%
Rainfall 0.84 in
Snow Depth Not available.
UV 0 out of 12
Pollen .70 out of 12
Air Quality Not available.
Flu Activity Not available.
METAR KAQO 230415Z AUTO 26007KT 10SM BKN060 15/13 A2984 RMK AO2 LTG DSNT NE-SE

More Conditions Fewer Conditions

10-Day Weather Forecast

Almanac

Astronomy

Nov. 22, 2014 Rise Set
Actual Time
Civil Twilight
Nautical Twilight
Astronomical Twilight
Moon
Length of Visible Light
Length of Day
Tomorrow will be .
, % of the Moon is Illuminated

Today's Extremes

State Highs State Lows

Community

WunderPhotos

Upload Photos

1,773,002 photos uploaded!

WunderBlogs® & News

Nearby

Air Quality

  Air Quality AQ Index Pollutant
Not available.

Snow Depth

Station Depth Elevation

Earthquake Activity

City Distance Mag. Time & Date
Minimum magnitude displayed is 2.5.

Coastal Water Temperatures

Place Temperature

Nearby Weather Stations